• Join FlightAware (Why Join?)
  • Login
  • US Flag 
03:51PM EST


 

Airport Tracker/Info


-or-


 

Live Flight TrackerFlight Track Log ✈ UPS235 ✈ 19-Nov-2013 ✈ KEWR - EGSS / STN

Flight Track Log - Related Links

Times and Time Zones

All times are in EST time to prevent confusion due to time zone crossing. See the UPS235 flight status page for this flight to view local times or setup timezone preferences in your user account.

Time Position Orientation Groundspeed Altitude Reporting Facility
EST Latitude Longitude Course Direction KTS MPH feet Rate Location/Type
09:04AM 40.7098 -74.1569 205° Southwest 172 198 1,500  Level FlightAware ADS-B
09:04AM 40.7123 -74.1538 43° Northeast 182 209 1,700 1,980 Climbing FlightAware ADS-B
09:05AM 40.7167 -74.1500 40° Northeast 181 208 2,000 1,980 Climbing New York TRACON
09:05AM 40.7212 -74.1409 48° Northeast 183 211 2,200 2,460 Climbing FlightAware ADS-B
09:05AM 40.7297 -74.1291 46° Northeast 200 230 2,700 1,800 Climbing FlightAware ADS-B
09:05AM 40.7354 -74.1231 39° Northeast 216 249 2,800 840 Climbing FlightAware ADS-B
09:05AM 40.7416 -74.1183 30° Northeast 226 260 2,900 2,100 Climbing FlightAware ADS-B
09:05AM 40.7510 -74.1118 28° Northeast 234 269 3,400 2,760 Climbing FlightAware ADS-B
09:06AM 40.7656 -74.1009 29° Northeast 235 270 4,100 2,400 Climbing FlightAware ADS-B
09:06AM 40.7714 -74.0962 32° Northeast 241 277 4,300 2,100 Climbing FlightAware ADS-B
09:06AM 40.7821 -74.0867 34° Northeast 242 278 4,700 1,500 Climbing FlightAware ADS-B
09:06AM 40.7862 -74.0823 39° Northeast 247 284 4,700 720 Level FlightAware ADS-B
09:06AM 40.7892 -74.0784 45° Northeast 254 292 4,800 1,380 Climbing FlightAware ADS-B
09:06AM 40.7957 -74.0663 55° Northeast 266 306 5,000 2,220 Climbing FlightAware ADS-B
09:06AM 40.7996 -74.0564 63° Northeast 268 308 5,400 4,320 Climbing FlightAware ADS-B
09:07AM 40.8076 -74.0342 65° Northeast 264 304 6,600 4,020 Climbing FlightAware ADS-B
09:07AM 40.8155 -74.0122 65° Northeast 267 307 7,500 3,480 Climbing FlightAware ADS-B
09:07AM 40.8245 -73.9875 64° Northeast 273 314 8,400 3,180 Climbing FlightAware ADS-B
09:07AM 40.8333 -73.9645 63° Northeast 279 321 9,200 2,460 Climbing FlightAware ADS-B
09:08AM 40.8428 -73.9402 63° Northeast 292 336 9,700 2,400 Climbing FlightAware ADS-B
09:10AM 41.0542 -73.7557 40° Northeast  Level FlightAware Approximate
09:10AM 40.9634 -73.7450 40° Northeast 361 415 15,100  Level FlightAware ADS-B (KSNC)
09:11AM 41.0402 -73.6824 32° Northeast 381 438 17,500 2,520 Climbing FlightAware ADS-B (KSNC)
09:11AM 41.0986 -73.6332 32° Northeast 393 452 18,900 1,740 Climbing FlightAware ADS-B (KSNC)
09:12AM 41.1573 -73.5839 32° Northeast 391 450 19,800 1,920 Climbing FlightAware ADS-B (KSNC)
09:12AM 41.2090 -73.5409 32° Northeast 396 456 21,200 2,400 Climbing FlightAware ADS-B (KSNC)
09:13AM 41.2605 -73.4983 32° Northeast 405 466 22,400 2,160 Climbing FlightAware ADS-B (KSNC)
09:14AM 41.3384 -73.4331 32° Northeast 417 480 24,300 2,280 Climbing FlightAware ADS-B (KSNC)
09:14AM 41.3939 -73.3865 32° Northeast 424 488 25,500 2,040 Climbing FlightAware ADS-B (KSNC)
09:15AM 41.4597 -73.3304 33° Northeast 438 504 26,800 1,920 Climbing FlightAware ADS-B (KSNC)
09:15AM 41.4809 -73.3109 35° Northeast 438 504 27,200 1,800 Climbing FlightAware ADS-B (SBBR / BSB)
09:16AM 41.5350 -73.2793 24° Northeast 422 486 28,000 1,500 Climbing FlightAware ADS-B (KSNC)
09:16AM 41.5949 -73.2658 10° North 406 467 28,800 900 Climbing FlightAware ADS-B (KSNC)
09:17AM 41.6506 -73.2678 358° North 407 468 29,000 180 Climbing FlightAware ADS-B (KSNC)
09:17AM 41.7062 -73.2673 360° North 420 483 29,000  Level FlightAware ADS-B (KSNC)
09:18AM 41.7684 -73.2394 19° North 448 516 29,000  Level FlightAware ADS-B (KSNC)
09:18AM 41.8003 -73.2067 37° Northeast 475 547 29,000  Level FlightAware ADS-B (KSNC)
09:19AM 41.8443 -73.1284 53° Northeast 487 560 29,000 480 Level FlightAware ADS-B (KSNC)
09:19AM 41.8851 -73.0499 55° Northeast 493 567 29,500 1,200 Climbing FlightAware ADS-B (KSNC)
09:20AM 41.9041 -73.0131 55° Northeast 497 572 30,500 1,680 Climbing FlightAware ADS-B (SBBR / BSB)
09:20AM 41.9041 -73.0131 55° Northeast 502 578 31,600 1,380 Climbing FlightAware ADS-B (SBBR / BSB)
09:21AM 42.0653 -72.6981 55° Northeast 514 592 32,700 1,200 Climbing FlightAware ADS-B (KSNC)
09:22AM 42.1170 -72.5970 55° Northeast 516 594 33,700 1,680 Climbing FlightAware ADS-B (KSNC)
09:23AM 42.1595 -72.5134 56° Northeast 508 585 34,700 960 Climbing FlightAware ADS-B (KSNC)
09:23AM 42.2293 -72.3848 54° Northeast 514 592 35,000 180 Climbing FlightAware ADS-B (KSNC)
09:24AM 42.2528 -72.3435 52° Northeast 512 589 35,000  Level FlightAware ADS-B (SBBR / BSB)
09:25AM 42.3282 -72.2098 53° Northeast 509 586 35,000  Level FlightAware ADS-B (KSNC)
09:25AM 42.3695 -72.1355 53° Northeast 509 586 35,000  Level FlightAware ADS-B (KSNC)
09:25AM 42.3775 -72.1211 53° Northeast 509 586 35,000  Level FlightAware ADS-B (KBOS)
09:26AM 42.4332 -72.0204 53° Northeast 506 582 35,000  Level FlightAware ADS-B (KBOS)
09:26AM 42.4835 -71.9288 53° Northeast 501 577 35,000  Level FlightAware ADS-B
09:27AM 42.5266 -71.8498 53° Northeast 499 574 35,000  Level FlightAware ADS-B
09:27AM 42.5449 -71.8161 54° Northeast 502 578 35,000  Level FlightAware ADS-B (KSNC)
09:28AM 42.5927 -71.7283 54° Northeast 503 579 35,000  Level FlightAware ADS-B (SBBR / BSB)
09:28AM 42.6336 -71.6533 53° Northeast 503 579 35,000  Level FlightAware ADS-B (SBBR / BSB)
09:29AM 42.6776 -71.5722 53° Northeast 497 572 35,000  Level FlightAware ADS-B
09:29AM 42.6919 -71.5458 54° Northeast 498 573 35,000  Level FlightAware ADS-B
09:29AM 42.7053 -71.5211 54° Northeast 497 572 35,000  Level FlightAware ADS-B
09:30AM 42.7466 -71.4447 54° Northeast 497 572 35,000  Level FlightAware ADS-B
09:30AM 42.7727 -71.3965 54° Northeast 496 571 35,000  Level FlightAware ADS-B
09:30AM 42.7921 -71.3605 54° Northeast 496 571 35,000  Level FlightAware ADS-B
09:31AM 42.8412 -71.2693 54° Northeast 501 577 35,000  Level FlightAware ADS-B (SBBR / BSB)
09:31AM 42.8492 -71.2544 54° Northeast 496 571 35,000  Level FlightAware ADS-B
09:31AM 42.8690 -71.2173 54° Northeast 497 572 35,000  Level FlightAware ADS-B
09:31AM 42.8837 -71.1898 54° Northeast 497 572 35,000  Level FlightAware ADS-B
09:31AM 42.8973 -71.1646 54° Northeast 497 572 35,000  Level FlightAware ADS-B
09:32AM 42.9193 -71.1233 54° Northeast 497 572 35,000  Level FlightAware ADS-B
09:32AM 42.9626 -71.0424 54° Northeast 498 573 35,000  Level FlightAware ADS-B
09:33AM 43.0077 -70.9574 54° Northeast 499 574 35,000  Level FlightAware ADS-B
09:33AM 43.0238 -70.9273 54° Northeast 504 580 35,000  Level FlightAware ADS-B (SBBR / BSB)
09:34AM 43.0635 -70.8526 54° Northeast 505 581 35,000  Level FlightAware ADS-B (KBOS)
09:34AM 43.1152 -70.7545 54° Northeast 505 581 35,000  Level FlightAware ADS-B (KBOS)
09:34AM 43.1292 -70.7281 54° Northeast 501 577 35,000  Level FlightAware ADS-B
09:35AM 43.1578 -70.6737 54° Northeast 501 577 35,000  Level FlightAware ADS-B
09:35AM 43.1873 -70.6178 54° Northeast 507 583 35,000  Level FlightAware ADS-B (CYQI)
09:35AM 43.1987 -70.5961 54° Northeast 507 583 35,000  Level FlightAware ADS-B (KBOS)
09:35AM 43.2143 -70.5664 54° Northeast 507 583 35,000  Level FlightAware ADS-B (KBOS)
09:35AM 43.2101 -70.5744 234° Southwest 506 582 35,000  Level FlightAware ADS-B (CYQI)
09:36AM 43.2699 -70.4600 54° Northeast 503 579 35,000  Level FlightAware ADS-B (KBOS)
09:36AM 43.2812 -70.4386 54° Northeast 507 583 35,000  Level FlightAware ADS-B (KBOS)
09:37AM 43.3230 -70.3585 54° Northeast 503 579 35,000  Level FlightAware ADS-B
09:37AM 43.3635 -70.2805 54° Northeast 509 586 35,000  Level FlightAware ADS-B (KBOS)
09:38AM 43.4190 -70.1735 54° Northeast 504 580 35,000  Level FlightAware ADS-B
09:38AM 43.4489 -70.1157 55° Northeast 509 586 35,000  Level FlightAware ADS-B (CYQI)
09:39AM 43.5166 -69.9844 55° Northeast 509 586 35,000  Level FlightAware ADS-B
09:39AM 43.5566 -69.9063 55° Northeast 509 586 35,000  Level FlightAware ADS-B
09:40AM 43.6058 -69.8104 55° Northeast 509 586 35,000  Level FlightAware ADS-B
09:41AM 43.6519 -69.7200 55° Northeast 510 587 35,000  Level FlightAware ADS-B (CYQI)
09:41AM 43.7058 -69.6142 55° Northeast 511 588 35,000  Level FlightAware ADS-B
09:42AM 43.7447 -69.5374 55° Northeast 511 588 35,000  Level FlightAware ADS-B (KBOS)
09:43AM 43.8135 -69.4012 55° Northeast 513 590 35,000  Level FlightAware ADS-B (CYQI)
09:43AM 43.8524 -69.3239 55° Northeast 514 592 35,000  Level FlightAware ADS-B (CYQI)
09:44AM 43.8990 -69.2312 55° Northeast 515 593 35,000  Level FlightAware ADS-B (KBOS)
09:44AM 43.9439 -69.1413 55° Northeast 515 593 35,000  Level FlightAware ADS-B (KBOS)
09:45AM 43.9969 -69.0350 55° Northeast 515 593 35,000  Level FlightAware ADS-B (CYQI)
09:46AM 44.0519 -68.9244 55° Northeast 515 593 35,000  Level FlightAware ADS-B (KBOS)
09:46AM 44.1058 -68.8157 55° Northeast 516 594 35,000  Level FlightAware ADS-B (CYQI)
09:47AM 44.1410 -68.7442 55° Northeast 516 594 35,000  Level FlightAware ADS-B (KBGR)
09:47AM 44.1871 -68.6507 56° Northeast 516 594 35,000  Level FlightAware ADS-B (CYQI)
09:48AM 44.1700 -68.6853 236° Southwest 515 593 35,000  Level FlightAware ADS-B (KBOS)
09:50AM 44.3755 -68.2644 56° Northeast 516 594 35,000  Level FlightAware ADS-B (CYQI)
09:50AM 44.4222 -68.1679 56° Northeast 516 594 35,000  Level FlightAware ADS-B (KBGR)
09:51AM 44.4781 -68.0521 56° Northeast 516 594 35,000  Level FlightAware ADS-B (CYQI)
09:52AM 44.5320 -67.9399 56° Northeast 516 594 35,000  Level FlightAware ADS-B (CYQI)
09:52AM 44.5728 -67.8545 56° Northeast 516 594 35,000  Level FlightAware ADS-B (CYQI)
09:53AM 44.6148 -67.7663 56° Northeast 515 593 35,000  Level FlightAware ADS-B (CYQI)
09:53AM 44.6584 -67.6748 56° Northeast 516 594 35,000  Level FlightAware ADS-B (CYQI)
09:54AM 44.6984 -67.5907 56° Northeast 517 595 35,000  Level FlightAware ADS-B (CYQI)
09:54AM 44.7439 -67.4945 56° Northeast 518 596 35,000  Level FlightAware ADS-B (CYQI)
09:55AM 44.8068 -67.3609 56° Northeast 519 597 35,000  Level FlightAware ADS-B (CYQI)
09:56AM 44.8626 -67.2420 56° Northeast 520 598 35,000  Level FlightAware ADS-B (CYQI)
09:56AM 44.8911 -67.1790 57° Northeast 520 598 35,000  Level FlightAware ADS-B (KBGR)
09:59AM 45.1044 -66.6492 60° Northeast 523 602 35,000  Level FlightAware ADS-B (CYQI)
10:00AM 45.1411 -66.5562 61° Northeast 524 603 35,000  Level FlightAware ADS-B (CYQI)
10:00AM 45.1842 -66.4461 61° Northeast 524 603 35,000  Level FlightAware ADS-B (CYQI)
10:01AM 45.2188 -66.3576 61° Northeast 524 603 35,000  Level FlightAware ADS-B (CYQI)
10:01AM 45.2589 -66.2548 61° Northeast 525 604 35,000  Level FlightAware ADS-B (CYQI)
10:02AM 45.2878 -66.1797 61° Northeast 525 604 35,000  Level FlightAware ADS-B (CYQI)
10:02AM 45.3257 -66.0827 61° Northeast 525 604 35,000  Level FlightAware ADS-B (CYQI)
10:03AM 45.3612 -65.9904 61° Northeast 526 605 35,000  Level FlightAware ADS-B (CYQI)
10:03AM 45.3989 -65.8924 61° Northeast 528 608 35,000  Level FlightAware ADS-B (CYQI)
10:04AM 45.4443 -65.7660 63° Northeast 525 604 35,000  Level FlightAware ADS-B (CYQI)
10:04AM 45.4773 -65.6661 65° Northeast 526 605 35,000  Level FlightAware ADS-B (CYQI)
10:05AM 45.5219 -65.5314 65° Northeast 526 605 35,000  Level FlightAware ADS-B (CYQI)
10:06AM 45.5667 -65.3969 64° Northeast 527 606 35,000  Level FlightAware ADS-B (CYQI)
10:06AM 45.6032 -65.2880 64° Northeast 527 606 35,000  Level FlightAware ADS-B (CYQI)
10:07AM 45.6326 -65.1999 64° Northeast 527 606 35,000  Level FlightAware ADS-B (CYQI)
10:08AM 45.6698 -65.0886 64° Northeast 525 604 35,000  Level FlightAware ADS-B (CYQI)
10:08AM 45.7038 -64.9858 65° Northeast 523 602 35,000  Level FlightAware ADS-B (CYQI)
10:09AM 45.7383 -64.8818 65° Northeast 522 601 35,000  Level FlightAware ADS-B (CYQI)
10:09AM 45.7658 -64.7976 65° Northeast 523 602 35,000  Level FlightAware ADS-B (CYQI)
10:10AM 45.8167 -64.6500 65° Northeast 520 598 35,000  Level Gander Center
10:11AM 45.8500 -64.5333 68° East 520 598 35,000  Level Moncton Center
10:12AM 45.9000 -64.3167 72° East 520 598 35,000  Level Moncton Center
10:13AM 45.9667 -64.1500 60° Northeast 530 610 35,000  Level Moncton Center
10:14AM 46.0333 -63.9333 66° East 530 610 35,000  Level Moncton Center
10:15AM 46.0667 -63.7667 74° East 530 610 35,000  Level Moncton Center
10:16AM 46.1333 -63.5500 66° East 540 621 35,000  Level Moncton Center
10:17AM 46.2000 -63.3500 64° Northeast 540 621 35,000  Level Moncton Center
10:18AM 46.2667 -63.1667 62° Northeast 530 610 35,000  Level Moncton Center
10:19AM 46.3333 -62.9667 64° Northeast 530 610 35,000  Level Moncton Center
10:20AM 46.4000 -62.8000 60° Northeast 530 610 35,000  Level Moncton Center
10:21AM 46.4667 -62.5667 67° East 530 610 35,000  Level Moncton Center
10:22AM 46.5333 -62.4000 60° Northeast 530 610 35,000  Level Moncton Center
10:23AM 46.6000 -62.2000 64° Northeast 530 610 35,000  Level Moncton Center
10:24AM 46.6667 -62.0000 64° Northeast 520 598 35,000  Level Moncton Center
10:25AM 46.7333 -61.8000 64° Northeast 530 610 35,000  Level Moncton Center
10:26AM 46.8000 -61.6333 60° Northeast 530 610 35,000  Level Moncton Center
10:27AM 46.8500 -61.4333 70° East 530 610 35,000  Level Moncton Center
10:28AM 46.9167 -61.2333 64° Northeast 530 610 35,000  Level Moncton Center
10:29AM 46.9833 -61.0667 60° Northeast 530 610 35,000  Level Moncton Center
10:30AM 47.0667 -60.8500 60° Northeast 520 598 35,000  Level Moncton Center
10:31AM 47.1167 -60.6833 66° East 530 610 35,000  Level Moncton Center
10:32AM 47.1833 -60.4500 67° East 540 621 35,000  Level Moncton Center
10:33AM 47.2333 -60.2833 66° East 510 587 35,000  Level Moncton Center
10:34AM 47.3000 -60.0833 64° Northeast 520 598 35,000  Level Moncton Center
10:35AM 47.3667 -59.9000 62° Northeast 520 598 35,000  Level Moncton Center
10:36AM 47.4167 -59.7000 70° East 520 598 35,000  Level Moncton Center
10:37AM 47.4833 -59.4833 65° Northeast 520 598 35,000  Level Moncton Center
10:38AM 47.5500 -59.2833 64° Northeast 520 598 35,000  Level Moncton Center
10:39AM 47.6167 -59.1000 62° Northeast 530 610 35,000  Level Moncton Center
10:40AM 47.6667 -58.9333 66° East 520 598 35,000  Level Moncton Center
10:41AM 47.7333 -58.7167 65° Northeast 520 598 35,000  Level Moncton Center
10:42AM 47.7833 -58.5167 70° East 520 598 35,000  Level Moncton Center
10:43AM 47.8333 -58.3000 71° East 520 598 35,000  Level Moncton Center
10:44AM 47.9000 -58.1333 59° Northeast 520 598 35,000  Level Moncton Center
10:45AM 47.9500 -57.9167 71° East 510 587 35,000  Level Moncton Center
10:46AM 48.0167 -57.7333 61° Northeast 520 598 35,000  Level Moncton Center
10:47AM 48.0833 -57.5333 63° Northeast 520 598 35,000  Level Moncton Center
10:48AM 48.1333 -57.3333 69° East 520 598 35,000  Level Moncton Center
10:49AM 48.1833 -57.1333 69° East 520 598 35,000  Level Moncton Center
10:50AM 48.2500 -56.9167 65° Northeast 520 598 35,000  Level Moncton Center
10:51AM 48.3000 -56.7333 68° East 520 598 35,000  Level Moncton Center
10:52AM 48.3500 -56.5333 69° East 520 598 35,000  Level Moncton Center
10:53AM 48.4000 -56.3500 68° East 510 587 35,000  Level Moncton Center
10:54AM 48.4667 -56.1333 65° Northeast 510 587 35,000  Level Moncton Center
10:55AM 48.5333 -55.9500 61° Northeast 520 598 35,000  Level Moncton Center
10:56AM 48.5833 -55.7333 71° East 520 598 35,000  Level Moncton Center
10:57AM 48.6333 -55.5500 68° East 510 587 35,000  Level Moncton Center
10:58AM 48.6833 -55.3500 69° East 510 587 35,000  Level Moncton Center
10:59AM 48.7500 -55.1333 65° Northeast 510 587 35,000  Level Moncton Center
11:00AM 48.8000 -54.9500 67° East 510 587 35,000  Level Moncton Center
11:01AM 48.8500 -54.7333 71° East 510 587 35,000  Level Moncton Center
11:02AM 48.9000 -54.5167 71° East 510 587 35,000  Level Moncton Center
11:03AM 48.9500 -54.3333 67° East 520 598 35,000  Level Moncton Center
11:04AM 49.0000 -54.1167 71° East 520 598 35,000  Level Moncton Center
11:05AM 49.0500 -53.9333 67° East 510 587 35,000  Level Moncton Center
11:06AM 49.1167 -53.7167 65° Northeast 520 598 35,000  Level Moncton Center
11:07AM 49.1667 -53.5167 69° East 510 587 35,000  Level Moncton Center
11:08AM 49.2167 -53.3000 70° East 520 598 35,000  Level Moncton Center
11:09AM 49.2667 -53.1167 67° East 510 587 35,000  Level Moncton Center
11:10AM 49.3167 -52.9167 69° East 510 587 35,000  Level Moncton Center
11:11AM 49.3500 -52.7000 77° East 510 587 35,000  Level Moncton Center
11:12AM 49.4000 -52.5000 69° East 510 587 35,000  Level Moncton Center
11:13AM 49.4667 -52.2833 65° Northeast 510 587 35,000  Level Moncton Center
11:14AM 49.5167 -52.0833 69° East 510 587 35,000  Level Moncton Center
11:15AM 49.5500 -51.9000 74° East 500 575 35,000  Level Moncton Center
11:16AM 49.6000 -51.6833 70° East 500 575 35,000  Level Moncton Center
11:17AM 49.6500 -51.4833 69° East 500 575 35,000  Level Moncton Center
11:18AM 49.6833 -51.2667 77° East 510 587 35,000  Level Moncton Center
11:19AM 49.7333 -51.0667 69° East 510 587 35,000  Level Moncton Center
11:20AM 49.7833 -50.8667 69° East 500 575 35,000  Level Moncton Center
11:21AM 49.8167 -50.6500 77° East 510 587 35,000  Level Moncton Center
11:22AM 49.8667 -50.4500 69° East 500 575 35,000  Level Moncton Center
11:23AM 49.9000 -50.2333 76° East 500 575 35,000  Level Moncton Center
11:24AM 49.9500 -50.0333 69° East 500 575 35,000  Level Moncton Center
11:25AM 49.9833 -49.7667 79° East 510 587 35,000  Level Gander Center
11:26AM 49.9833 -49.5167 90° East 510 587 35,000  Level Gander Center
11:27AM 50.0000 -49.3167 83° East 500 575 35,000  Level Gander Center
11:28AM 50.0000 -49.1000 90° East 510 587 35,000  Level Gander Center
11:29AM 50.0167 -48.8500 84° East 510 587 35,000  Level Gander Center
11:30AM 50.0167 -48.6667 90° East 500 575 35,000  Level Gander Center
11:31AM 50.0167 -48.4333 90° East 510 587 35,000  Level Gander Center
11:32AM 50.0333 -48.2167 83° East 510 587 35,000  Level Gander Center
11:33AM 50.0333 -47.9833 90° East 510 587 35,000  Level Gander Center
11:34AM 50.0333 -47.7833 90° East 500 575 35,000  Level Gander Center
11:35AM 50.0333 -47.5667 90° East 500 575 35,000  Level Gander Center
11:37AM 50.0454 -47.3140 86° East  Level FlightAware Approximate
11:44AM 50.1009 -45.8773 89° East  Level FlightAware Approximate
11:45AM 50.1024 -45.6716 89° East  Level FlightAware Approximate
11:46AM 50.1035 -45.4659 89° East  Level FlightAware Approximate
11:47AM 50.1043 -45.2601 90° East  Level FlightAware Approximate
11:48AM 50.1047 -45.0544 90° East  Level FlightAware Approximate
11:49AM 50.1047 -44.8486 90° East  Level FlightAware Approximate
11:50AM 50.1044 -44.6429 90° East  Level FlightAware Approximate
11:51AM 50.1037 -44.4371 90° East  Level FlightAware Approximate
11:52AM 50.1026 -44.2314 90° East  Level FlightAware Approximate
11:53AM 50.1012 -44.0257 91° East  Level FlightAware Approximate
11:54AM 50.0994 -43.8200 91° East  Level FlightAware Approximate
11:55AM 50.0972 -43.6143 91° East  Level FlightAware Approximate
11:56AM 50.0947 -43.4086 91° East  Level FlightAware Approximate
11:57AM 50.0919 -43.2030 91° East  Level FlightAware Approximate
11:58AM 50.0886 -42.9974 91° East  Level FlightAware Approximate
11:59AM 50.0850 -42.7918 91° East  Level FlightAware Approximate
12:00PM 50.0810 -42.5862 92° East  Level FlightAware Approximate
12:01PM 50.0767 -42.3807 92° East  Level FlightAware Approximate
12:02PM 50.0720 -42.1752 92° East  Level FlightAware Approximate
12:03PM 50.0670 -41.9697 92° East  Level FlightAware Approximate
12:04PM 50.0615 -41.7643 92° East  Level FlightAware Approximate
12:05PM 50.0558 -41.5590 92° East  Level FlightAware Approximate
12:06PM 50.0496 -41.3537 93° East  Level FlightAware Approximate
12:07PM 50.0431 -41.1484 93° East  Level FlightAware Approximate
12:08PM 50.0363 -40.9432 93° East  Level FlightAware Approximate
12:09PM 50.0290 -40.7381 93° East  Level FlightAware Approximate
12:10PM 50.0214 -40.5331 93° East  Level FlightAware Approximate
12:11PM 50.0135 -40.3280 93° East  Level FlightAware Approximate
12:12PM 50.0052 -40.1231 94° East  Level FlightAware Approximate
12:13PM 50.0035 -39.9182 86° East  Level FlightAware Approximate
12:14PM 50.0120 -39.7133 86° East  Level FlightAware Approximate
12:15PM 50.0201 -39.5083 86° East  Level FlightAware Approximate
12:16PM 50.0279 -39.3033 87° East  Level FlightAware Approximate
12:17PM 50.0353 -39.0982 87° East  Level FlightAware Approximate
12:18PM 50.0424 -38.8930 87° East  Level FlightAware Approximate
12:19PM 50.0491 -38.6878 87° East  Level FlightAware Approximate
12:20PM 50.0554 -38.4825 87° East  Level FlightAware Approximate
12:21PM 50.0614 -38.2771 87° East  Level FlightAware Approximate
12:22PM 50.0670 -38.0718 87° East  Level FlightAware Approximate
12:23PM 50.0722 -37.8663 88° East  Level FlightAware Approximate
12:24PM 50.0771 -37.6609 88° East  Level FlightAware Approximate
12:25PM 50.0816 -37.4553 88° East  Level FlightAware Approximate
12:26PM 50.0858 -37.2498 88° East  Level FlightAware Approximate
12:27PM 50.0896 -37.0442 88° East  Level FlightAware Approximate
12:28PM 50.0930 -36.8386 88° East  Level FlightAware Approximate
12:29PM 50.0961 -36.6329 89° East  Level FlightAware Approximate
12:30PM 50.0988 -36.4272 89° East  Level FlightAware Approximate
12:31PM 50.1011 -36.2215 89° East  Level FlightAware Approximate
12:32PM 50.1031 -36.0158 89° East  Level FlightAware Approximate
12:33PM 50.1047 -35.8101 89° East  Level FlightAware Approximate
12:34PM 50.1059 -35.6044 89° East  Level FlightAware Approximate
12:35PM 50.1068 -35.3986 90° East  Level FlightAware Approximate
12:36PM 50.1074 -35.1928 90° East  Level FlightAware Approximate
12:37PM 50.1075 -34.9871 90° East  Level FlightAware Approximate
12:38PM 50.1073 -34.7813 90° East  Level FlightAware Approximate
12:39PM 50.1068 -34.5756 90° East  Level FlightAware Approximate
12:40PM 50.1058 -34.3698 90° East  Level FlightAware Approximate
12:41PM 50.1045 -34.1641 90° East  Level FlightAware Approximate
12:42PM 50.1029 -33.9584 91° East  Level FlightAware Approximate
12:43PM 50.1008 -33.7526 91° East  Level FlightAware Approximate
12:44PM 50.0984 -33.5470 91° East  Level FlightAware Approximate
12:45PM 50.0957 -33.3413 91° East  Level FlightAware Approximate
12:46PM 50.0926 -33.1356 91° East  Level FlightAware Approximate
12:47PM 50.0891 -32.9300 91° East  Level FlightAware Approximate
12:48PM 50.0853 -32.7244 92° East  Level FlightAware Approximate
12:49PM 50.0811 -32.5189 92° East  Level FlightAware Approximate
12:50PM 50.0765 -32.3134 92° East  Level FlightAware Approximate
12:51PM 50.0716 -32.1079 92° East  Level FlightAware Approximate
12:52PM 50.0663 -31.9025 92° East  Level FlightAware Approximate
12:53PM 50.0606 -31.6971 92° East  Level FlightAware Approximate
12:54PM 50.0546 -31.4918 93° East  Level FlightAware Approximate
12:55PM 50.0482 -31.2865 93° East  Level FlightAware Approximate
12:56PM 50.0415 -31.0812 93° East  Level FlightAware Approximate
12:57PM 50.0344 -30.8761 93° East  Level FlightAware Approximate
12:58PM 50.0270 -30.6710 93° East  Level FlightAware Approximate
12:59PM 50.0191 -30.4660 93° East  Level FlightAware Approximate
01:00PM 50.0109 -30.2610 93° East  Level FlightAware Approximate
01:01PM 50.0024 -30.0561 94° East  Level FlightAware Approximate
01:02PM 50.0061 -29.8512 86° East  Level FlightAware Approximate
01:03PM 50.0142 -29.6462 86° East  Level FlightAware Approximate
01:04PM 50.0219 -29.4412 87° East  Level FlightAware Approximate
01:05PM 50.0292 -29.2361 87° East  Level FlightAware Approximate
01:06PM 50.0362 -29.0310 87° East  Level FlightAware Approximate
01:07PM 50.0428 -28.8258 87° East  Level FlightAware Approximate
01:08PM 50.0491 -28.6205 87° East  Level FlightAware Approximate
01:09PM 50.0550 -28.4152 87° East  Level FlightAware Approximate
01:10PM 50.0606 -28.2098 88° East  Level FlightAware Approximate
01:11PM 50.0657 -28.0044 88° East  Level FlightAware Approximate
01:12PM 50.0705 -27.7990 88° East  Level FlightAware Approximate
01:13PM 50.0750 -27.5935 88° East  Level FlightAware Approximate
01:14PM 50.0791 -27.3879 88° East  Level FlightAware Approximate
01:15PM 50.0828 -27.1824 88° East  Level FlightAware Approximate
01:16PM 50.0862 -26.9768 88° East  Level FlightAware Approximate
01:17PM 50.0892 -26.7712 89° East  Level FlightAware Approximate
01:18PM 50.0918 -26.5655 89° East  Level FlightAware Approximate
01:19PM 50.0941 -26.3598 89° East  Level FlightAware Approximate
01:20PM 50.0960 -26.1542 89° East  Level FlightAware Approximate
01:21PM 50.0976 -25.9485 89° East  Level FlightAware Approximate
01:22PM 50.0988 -25.7428 89° East  Level FlightAware Approximate
01:23PM 50.0996 -25.5370 90° East  Level FlightAware Approximate
01:24PM 50.1000 -25.3313 90° East  Level FlightAware Approximate
01:25PM 50.1001 -25.1256 90° East  Level FlightAware Approximate
01:26PM 50.1004 -24.9198 90° East  Level FlightAware Approximate
01:27PM 50.1012 -24.7141 90° East  Level FlightAware Approximate
01:28PM 50.1016 -24.5084 90° East  Level FlightAware Approximate
01:29PM 50.1017 -24.3027 90° East  Level FlightAware Approximate
01:30PM 50.1014 -24.0969 90° East  Level FlightAware Approximate
01:31PM 50.1007 -23.8912 90° East  Level FlightAware Approximate
01:32PM 50.0995 -23.6855 91° East  Level FlightAware Approximate
01:33PM 50.0970 -23.4798 91° East  Level FlightAware Approximate
01:34PM 50.0942 -23.2741 91° East  Level FlightAware Approximate
01:35PM 50.0910 -23.0685 91° East  Level FlightAware Approximate
01:36PM 50.0874 -22.8629 91° East  Level FlightAware Approximate
01:37PM 50.0835 -22.6573 92° East  Level FlightAware Approximate
01:38PM 50.0792 -22.4518 92° East  Level FlightAware Approximate
01:39PM 50.0746 -22.2463 92° East  Level FlightAware Approximate
01:40PM 50.0695 -22.0408 92° East  Level FlightAware Approximate
01:41PM 50.0642 -21.8354 92° East  Level FlightAware Approximate
01:42PM 50.0584 -21.6300 92° East  Level FlightAware Approximate
01:43PM 50.0523 -21.4247 93° East  Level FlightAware Approximate
01:44PM 50.0459 -21.2194 93° East  Level FlightAware Approximate
01:45PM 50.0391 -21.0142 93° East  Level FlightAware Approximate
01:46PM 50.0319 -20.8091 93° East  Level FlightAware Approximate
01:47PM 50.0243 -20.6040 93° East  Level FlightAware Approximate
01:48PM 50.0164 -20.3990 93° East  Level FlightAware Approximate
01:49PM 50.0082 -20.1940 94° East  Level FlightAware Approximate
01:50PM 50.0017 -19.9895 76° East  Level FlightAware Approximate
01:51PM 50.0346 -19.7906 76° East  Level FlightAware Approximate
01:52PM 50.0670 -19.5914 76° East  Level FlightAware Approximate
01:53PM 50.0992 -19.3919 76° East  Level FlightAware Approximate
01:54PM 50.1310 -19.1922 76° East  Level FlightAware Approximate
01:55PM 50.1624 -18.9922 76° East  Level FlightAware Approximate
01:56PM 50.1935 -18.7920 76° East  Level FlightAware Approximate
01:57PM 50.2252 -18.5917 76° East  Level FlightAware Approximate
01:58PM 50.2568 -18.3914 76° East  Level FlightAware Approximate
01:59PM 50.2880 -18.1908 76° East  Level FlightAware Approximate
02:00PM 50.3189 -17.9899 76° East  Level FlightAware Approximate
02:01PM 50.3494 -17.7888 77° East  Level FlightAware Approximate
02:02PM 50.3796 -17.5874 77° East  Level FlightAware Approximate
02:03PM 50.4094 -17.3858 77° East  Level FlightAware Approximate
02:04PM 50.4389 -17.1839 77° East  Level FlightAware Approximate
02:05PM 50.4680 -16.9817 77° East  Level FlightAware Approximate
02:06PM 50.4968 -16.7793 77° East  Level FlightAware Approximate
02:07PM 50.5252 -16.5767 77° East  Level FlightAware Approximate
02:08PM 50.5533 -16.3738 78° East  Level FlightAware Approximate
02:09PM 50.5810 -16.1707 78° East  Level FlightAware Approximate
02:10PM 50.6084 -15.9673 78° East  Level FlightAware Approximate
02:11PM 50.6354 -15.7637 78° East  Level FlightAware Approximate
02:12PM 50.6621 -15.5599 78° East  Level FlightAware Approximate
02:13PM 50.6884 -15.3558 78° East  Level FlightAware Approximate
02:14PM 50.7143 -15.1515 79° East  Level FlightAware Approximate
02:15PM 50.7399 -14.9470 79° East  Level FlightAware Approximate
02:16PM 50.7652 -14.7423 79° East  Level FlightAware Approximate
02:17PM 50.7900 -14.5373 79° East  Level FlightAware Approximate
02:18PM 50.8145 -14.3322 79° East  Level FlightAware Approximate
02:19PM 50.8387 -14.1268 79° East  Level FlightAware Approximate
02:20PM 50.8625 -13.9212 80° East  Level FlightAware Approximate
02:21PM 50.8859 -13.7154 80° East  Level FlightAware Approximate
02:22PM 50.9090 -13.5094 80° East  Level FlightAware Approximate
02:23PM 50.9317 -13.3032 80° East  Level FlightAware Approximate
02:24PM 50.9540 -13.0968 80° East  Level FlightAware Approximate
02:25PM 50.9760 -12.8902 80° East  Level FlightAware Approximate
02:26PM 50.9976 -12.6833 80° East  Level FlightAware Approximate
02:27PM 51.0189 -12.4764 81° East  Level FlightAware Approximate
02:28PM 51.0399 -12.2692 81° East  Level FlightAware Approximate
02:29PM 51.0609 -12.0619 81° East  Level FlightAware Approximate
02:30PM 51.0815 -11.8545 81° East  Level FlightAware Approximate
02:31PM 51.1017 -11.6469 81° East  Level FlightAware Approximate
02:32PM 51.1216 -11.4391 81° East  Level FlightAware Approximate
02:33PM 51.1411 -11.2311 81° East  Level FlightAware Approximate
02:34PM 51.1602 -11.0230 82° East  Level FlightAware Approximate
02:35PM 51.1790 -10.8146 82° East  Level FlightAware Approximate
02:36PM 51.1974 -10.6061 82° East  Level FlightAware Approximate
02:37PM 51.2154 -10.3975 82° East  Level FlightAware Approximate
02:38PM 51.2330 -10.1887 82° East  Level FlightAware Approximate
02:38PM 50.8810 -9.2462 82° East 427 491 37,000  Level FlightAware ADS-B (EPBY / BZG)
02:38PM 50.8957 -9.1304 79° East 428 493 37,000  Level FlightAware ADS-B (EPBY / BZG)
02:39PM 50.9097 -9.0161 79° East 428 493 37,000  Level FlightAware ADS-B (EPBY / BZG)
02:40PM 50.9255 -8.8866 79° East 427 491 37,000  Level FlightAware ADS-B (EPBY / BZG)
02:40PM 50.9398 -8.7735 79° East 458 527 37,000  Level FlightAware UK
02:41PM 50.9505 -8.6817 79° East 460 529 37,000  Level FlightAware UK
02:41PM 50.9622 -8.5901 79° East 456 525 37,000  Level FlightAware UK
02:42PM 50.9720 -8.4976 80° East 460 529 37,000  Level FlightAware UK
02:42PM 50.9788 -8.4041 83° East 460 529 37,000  Level FlightAware UK
02:43PM 50.9845 -8.3127 83° East 429 494 37,000  Level FlightAware ADS-B (EPBY / BZG)
02:43PM 50.9954 -8.2172 83° East 458 527 37,000  Level FlightAware UK
02:44PM 50.9970 -8.1701 83° East 427 491 37,000  Level FlightAware ADS-B (EPBY / BZG)
02:44PM 51.0044 -8.0818 82° East 427 491 37,000  Level FlightAware ADS-B (EPBY / BZG)
02:45PM 51.0115 -7.9973 82° East 426 490 37,000  Level FlightAware ADS-B (EPBY / BZG)
02:45PM 51.0266 -7.8451 82° East 456 525 37,000  Level FlightAware UK
02:46PM 51.0265 -7.8180 82° East 426 490 37,000  Level FlightAware ADS-B (EPBY / BZG)
02:46PM 51.0406 -7.6602 82° East 452 520 37,000  Level FlightAware UK
02:47PM 51.0480 -7.5678 83° East 456 525 37,000  Level FlightAware UK
02:47PM 51.0562 -7.4755 82° East 450 518 37,000  Level FlightAware UK
02:48PM 51.0630 -7.3835 83° East 454 522 37,000  Level FlightAware UK
02:48PM 51.0704 -7.2913 83° East 450 518 37,000  Level FlightAware UK
02:49PM 51.0773 -7.1991 83° East 448 516 37,000  Level FlightAware UK
02:49PM 51.0806 -7.1370 83° East 424 488 37,000  Level FlightAware ADS-B (EGCW)
02:50PM 51.0878 -7.0430 83° East 425 489 37,000  Level FlightAware ADS-B (EGCW)
02:50PM 51.0961 -6.9306 83° East 428 493 37,000  Level FlightAware ADS-B (EGCW)
02:51PM 51.1033 -6.8332 83° East 429 494 37,000  Level FlightAware ADS-B (EGCW)
02:51PM 51.1111 -6.7331 83° East 452 520 37,000  Level FlightAware UK
02:52PM 51.1078 -6.7716 83° East 430 495 37,000  Level FlightAware ADS-B (EGCW)
02:52PM 51.1209 -6.5906 83° East 430 495 37,000  Level FlightAware ADS-B (EGCW)
02:53PM 51.1300 -6.4503 83° East 450 518 37,000  Level FlightAware UK
02:53PM 51.1323 -6.4311 83° East 432 497 37,000  Level FlightAware ADS-B (EGCW)
02:54PM 51.1366 -6.3688 84° East 433 498 37,000  Level FlightAware ADS-B
02:54PM 51.1471 -6.2148 84° East 435 501 37,000  Level FlightAware ADS-B
02:55PM 51.1557 -6.0884 84° East 434 499 37,000  Level FlightAware ADS-B (EGCW)
02:55PM 51.1636 -5.9714 84° East 436 502 37,000  Level FlightAware ADS-B
02:56PM 51.1711 -5.8562 84° East 437 503 37,000  Level FlightAware ADS-B (EGCW)
02:57PM 51.1772 -5.7610 84° East 438 504 37,000  Level FlightAware ADS-B
02:57PM 51.1840 -5.6557 84° East 439 505 37,000  Level FlightAware ADS-B (EGCW)
02:58PM 51.1903 -5.5537 84° East 440 506 37,000  Level FlightAware ADS-B (EGCW)
02:58PM 51.1984 -5.4242 84° East 439 505 37,000  Level FlightAware ADS-B
02:58PM 51.1982 -5.4276 264° West 441 507 37,000  Level FlightAware ADS-B (EGDX / DGX)
02:59PM 51.2052 -5.3123 84° East 445 512 37,000  Level FlightAware ADS-B (EGCW)
02:59PM 51.2117 -5.2046 84° East 447 514 37,000  Level FlightAware ADS-B
03:00PM 51.2151 -5.1438 85° East 446 513 37,000  Level FlightAware ADS-B
03:00PM 51.2164 -5.1233 85° East 446 513 37,000  Level FlightAware ADS-B
03:00PM 51.2208 -5.0488 85° East 448 516 37,000  Level FlightAware ADS-B (KCOD)
03:00PM 51.2228 -5.0144 85° East 448 516 37,000  Level FlightAware ADS-B (EGCW)
03:01PM 51.2253 -4.9709 85° East 449 517 37,000  Level FlightAware ADS-B (EGHH / BOH)
03:01PM 51.2301 -4.8853 85° East 451 519 37,000  Level FlightAware ADS-B (EGHH / BOH)
03:01PM 51.2345 -4.8087 85° East 452 520 37,000  Level FlightAware ADS-B (EGHH / BOH)
03:01PM 51.2355 -4.7916 85° East 454 522 37,000  Level FlightAware ADS-B
03:02PM 51.2389 -4.7299 85° East 456 525 37,000  Level FlightAware ADS-B (EGDX / DGX)
03:02PM 51.2458 -4.6032 85° East 458 527 37,000  Level FlightAware ADS-B
03:03PM 51.2466 -4.5880 85° East 458 527 37,000  Level FlightAware ADS-B (EGDX / DGX)
03:03PM 51.2522 -4.4833 85° East 458 527 37,000  Level FlightAware ADS-B
03:04PM 51.2583 -4.3678 85° East 462 532 37,000  Level FlightAware ADS-B
03:04PM 51.2615 -4.3068 85° East 461 531 37,000  Level FlightAware ADS-B
03:04PM 51.2626 -4.2848 85° East 461 531 37,000  Level FlightAware ADS-B
03:04PM 51.2641 -4.2574 85° East 464 534 37,000  Level FlightAware ADS-B (EGCW)
03:04PM 51.2679 -4.1790 86° East 463 533 37,000  Level FlightAware ADS-B (KCOD)
03:05PM 51.2705 -4.1303 85° East 465 535 37,000  Level FlightAware ADS-B
03:05PM 51.2721 -4.1001 85° East 464 534 37,000  Level FlightAware ADS-B (EGHH / BOH)
03:05PM 51.2733 -4.0773 85° East 467 537 37,000  Level FlightAware ADS-B
03:05PM 51.2761 -4.0137 86° East 467 537 37,000  Level FlightAware ADS-B
03:06PM 51.2787 -3.9619 85° East 467 537 37,000  Level FlightAware ADS-B (EGDX / DGX)
03:06PM 51.2813 -3.9098 85° East 468 539 37,000  Level FlightAware ADS-B
03:06PM 51.2840 -3.8537 86° East 468 539 37,000  Level FlightAware ADS-B (EGDX / DGX)
03:06PM 51.2862 -3.8049 86° East 469 540 37,000  Level FlightAware ADS-B
03:07PM 51.2887 -3.7530 86° East 470 541 37,000  Level FlightAware ADS-B (EGCW)
03:07PM 51.2914 -3.6965 86° East 469 540 37,000  Level FlightAware ADS-B
03:07PM 51.2936 -3.6480 86° East 470 541 37,000  Level FlightAware ADS-B (EGCW)
03:07PM 51.2970 -3.5752 86° East 470 541 37,000  Level FlightAware ADS-B (EGDX / DGX)
03:08PM 51.2985 -3.5439 86° East 469 540 37,000  Level FlightAware ADS-B
03:08PM 51.3023 -3.4541 86° East 468 539 37,000  Level FlightAware ADS-B (KCOD)
03:08PM 51.3029 -3.4401 86° East 468 539 37,000  Level FlightAware ADS-B
03:09PM 51.3070 -3.3485 86° East 469 540 37,000  Level FlightAware ADS-B (KCOD)
03:09PM 51.3076 -3.3347 86° East 469 540 37,000  Level FlightAware ADS-B
03:09PM 51.3121 -3.2290 86° East 469 540 37,000 -540 Level FlightAware ADS-B
03:10PM 51.3161 -3.1331 86° East 467 537 36,500 -1,200 Descending FlightAware ADS-B
03:10PM 51.3165 -3.1228 86° East 467 537 36,400 -2,400 Descending FlightAware ADS-B
03:10PM 51.3181 -3.0818 86° East 466 536 35,900 -2,400 Descending FlightAware ADS-B
03:10PM 51.3184 -3.0745 87° East 467 537 35,800 -3,000 Descending FlightAware ADS-B
03:10PM 51.3208 -3.0197 86° East 467 537 35,000 -3,000 Descending FlightAware ADS-B
03:10PM 51.3230 -2.9710 86° East 469 540 34,300 -2,940 Descending FlightAware ADS-B (EGHH / BOH)
03:11PM 51.3251 -2.9152 86° East 470 541 33,500 -3,000 Descending FlightAware ADS-B
03:11PM 51.3271 -2.8654 86° East 468 539 32,800 -3,000 Descending FlightAware ADS-B
03:11PM 51.3279 -2.8447 87° East 467 537 32,500 -2,520 Descending FlightAware ADS-B
03:11PM 51.3293 -2.8077 86° East 465 535 32,100 -2,160 Descending FlightAware ADS-B
03:11PM 51.3294 -2.8057 87° East 463 533 32,000 -2,040 Descending FlightAware ADS-B
03:11PM 51.3304 -2.7772 87° East 460 529 31,800 -2,340 Descending FlightAware ADS-B
03:11PM 51.3312 -2.7530 87° East 457 526 31,500 -2,280 Descending FlightAware ADS-B (EGHH / BOH)
03:12PM 51.3324 -2.7224 86° East 455 524 31,200 -2,340 Descending FlightAware ADS-B (EGCW)
03:12PM 51.3328 -2.7101 86° East 453 521 31,000 -2,580 Descending FlightAware ADS-B
03:12PM 51.3332 -2.7003 87° East 453 521 30,900 -2,280 Descending FlightAware ADS-B
03:12PM 51.3339 -2.6827 87° East 450 518 30,700 -2,040 Descending FlightAware ADS-B
03:12PM 51.3350 -2.6513 87° East 448 516 30,400 -2,160 Descending FlightAware ADS-B (EGHH / BOH)
03:12PM 51.3354 -2.6411 86° East 447 514 30,200 -2,700 Descending FlightAware ADS-B
03:12PM 51.3361 -2.6208 87° East 445 512 30,000 -2,220 Descending FlightAware ADS-B
03:12PM 51.3369 -2.6006 87° East 444 511 29,800 -1,680 Descending FlightAware ADS-B
03:12PM 51.3374 -2.5854 87° East 441 507 29,700 -2,040 Descending FlightAware ADS-B
03:12PM 51.3383 -2.5621 87° East 439 505 29,400 -2,400 Descending FlightAware ADS-B
03:12PM 51.3393 -2.5347 87° East 438 504 29,100 -2,100 Descending FlightAware ADS-B
03:13PM 51.3406 -2.4972 87° East 434 499 28,700 -2,160 Descending FlightAware ADS-B
03:13PM 51.3409 -2.4898 86° East 432 497 28,600 -2,220 Descending FlightAware ADS-B
03:13PM 51.3419 -2.4609 87° East 428 493 28,300 -2,040 Descending FlightAware ADS-B
03:13PM 51.3426 -2.4423 87° East 427 491 28,100 -2,160 Descending FlightAware ADS-B (EGDM)
03:13PM 51.3437 -2.4175 86° East 424 488 27,800 -2,160 Descending FlightAware ADS-B (KMCW)
03:13PM 51.3444 -2.3994 86° East 422 486 27,600 -1,920 Descending FlightAware ADS-B
03:13PM 51.3462 -2.3498 87° East 416 479 27,100 -2,040 Descending FlightAware ADS-B
03:14PM 51.3469 -2.3284 87° East 416 479 26,800 -2,160 Descending FlightAware ADS-B
03:14PM 51.3477 -2.3075 87° East 413 475 26,600 -2,040 Descending FlightAware ADS-B
03:14PM 51.3504 -2.2277 87° East 406 467 25,700 -2,040 Descending FlightAware ADS-B (EGDM)
03:14PM 51.3507 -2.2171 87° East 405 466 25,600 -1,500 Descending FlightAware ADS-B
03:14PM 51.3507 -2.2187 270° West 403 464 25,600 -1,980 Level FlightAware ADS-B (EGHI / SOU)
03:15PM 51.3535 -2.1279 87° East 397 457 24,600 -2,160 Descending FlightAware ADS-B
03:15PM 51.3536 -2.1249 86° East 400 460 24,500 -2,160 Descending FlightAware ADS-B
03:15PM 51.3549 -2.0862 87° East 393 452 24,100 -2,100 Descending FlightAware ADS-B (KMCW)
03:15PM 51.3565 -2.0387 87° East 390 449 23,500 -1,980 Descending FlightAware ADS-B
03:15PM 51.3578 -1.9955 87° East 388 447 23,100 -1,860 Descending FlightAware ADS-B
03:16PM 51.3587 -1.9660 87° East 385 443 22,700 -2,280 Descending FlightAware ADS-B
03:16PM 51.3591 -1.9508 87° East 384 442 22,500 -1,800 Descending FlightAware ADS-B
03:16PM 51.3612 -1.8823 87° East 379 436 21,800 -1,800 Descending FlightAware ADS-B
03:16PM 51.3618 -1.8640 87° East 378 435 21,600 -2,040 Descending FlightAware ADS-B
03:17PM 51.3638 -1.7988 87° East 374 430 20,800 -1,980 Descending FlightAware ADS-B
03:17PM 51.3645 -1.7779 87° East 372 428 20,600 -2,040 Descending FlightAware ADS-B
03:17PM 51.3664 -1.7174 87° East 369 425 19,800 -1,980 Descending FlightAware ADS-B (EGLF / FAB)
03:17PM 51.3670 -1.6944 88° East 368 423 19,600 -1,800 Descending FlightAware ADS-B
03:17PM 51.3672 -1.6877 87° East 367 422 19,500 -1,800 Descending FlightAware ADS-B
03:18PM 51.3685 -1.6433 87° East 365 420 19,000 -1,980 Descending FlightAware ADS-B
03:18PM 51.3695 -1.6128 87° East 364 419 18,600 -2,160 Descending FlightAware ADS-B
03:18PM 51.3705 -1.5948 85° East 361 415 18,400 -1,740 Descending FlightAware ADS-B (EGHI / SOU)
03:18PM 51.3718 -1.5761 84° East 358 412 18,200 -1,200 Descending FlightAware ADS-B
03:18PM 51.3721 -1.5708 84° East 357 411 18,200 -660 Level FlightAware ADS-B
03:18PM 51.3750 -1.5257 84° East 354 407 18,000 -420 Descending FlightAware ADS-B
03:19PM 51.3768 -1.4950 85° East 356 410 18,000  Level FlightAware ADS-B
03:19PM 51.3792 -1.4559 84° East 357 411 18,000  Level FlightAware ADS-B
03:19PM 51.3808 -1.4278 85° East 357 411 18,000  Level FlightAware ADS-B (EGWE)
03:19PM 51.3837 -1.3764 85° East 357 411 18,000  Level FlightAware ADS-B
03:20PM 51.3855 -1.3425 85° East 358 412 18,000  Level FlightAware ADS-B
03:20PM 51.3861 -1.3304 85° East 358 412 18,000  Level FlightAware ADS-B
03:20PM 51.3869 -1.3153 85° East 358 412 18,000  Level FlightAware ADS-B
03:20PM 51.3880 -1.2930 85° East 358 412 18,000  Level FlightAware ADS-B
03:20PM 51.3885 -1.2847 85° East 358 412 18,000  Level FlightAware ADS-B (EHTW / ENS)
03:20PM 51.3894 -1.2663 85° East 358 412 18,000  Level FlightAware ADS-B
03:20PM 51.3901 -1.2538 85° East 357 411 18,000  Level FlightAware ADS-B (LSXS)
03:20PM 51.3917 -1.2215 85° East 356 410 18,000  Level FlightAware ADS-B (EGLF / FAB)
03:20PM 51.3925 -1.2077 85° East 355 409 18,000  Level FlightAware ADS-B
03:20PM 51.3928 -1.2012 86° East 356 410 18,000  Level FlightAware ADS-B (EGLF / FAB)
03:21PM 51.3937 -1.1831 85° East 357 411 18,000  Level FlightAware ADS-B (EGHH / BOH)
03:21PM 51.3943 -1.1708 86° East 357 411 18,000  Level FlightAware ADS-B
03:21PM 51.3939 -1.1801 265° West 357 411 18,000  Level FlightAware ADS-B
03:21PM 51.3955 -1.1472 85° East 357 411 18,000  Level FlightAware ADS-B (LSXS)
03:21PM 51.3965 -1.1290 85° East 358 412 18,000  Level FlightAware ADS-B
03:21PM 51.3970 -1.1182 86° East 358 412 18,000  Level FlightAware ADS-B
03:21PM 51.3974 -1.1104 85° East 358 412 18,000  Level FlightAware ADS-B
03:21PM 51.3983 -1.0942 85° East 358 412 18,000  Level FlightAware ADS-B
03:21PM 51.3995 -1.0703 85° East 357 411 18,000  Level FlightAware ADS-B (LSXS)
03:21PM 51.4006 -1.0495 85° East 358 412 18,000  Level FlightAware ADS-B
03:22PM 51.4020 -1.0216 85° East 359 413 18,000  Level FlightAware ADS-B (EHTW / ENS)
03:22PM 51.4026 -1.0096 85° East 358 412 18,000  Level FlightAware ADS-B (LSXS)
03:22PM 51.4032 -0.9979 85° East 357 411 18,000  Level FlightAware ADS-B (EGHH / BOH)
03:22PM 51.4040 -0.9826 85° East 355 409 18,000  Level FlightAware ADS-B (LSXS)
03:22PM 51.4046 -0.9707 85° East 354 407 18,000  Level FlightAware ADS-B (EGHH / BOH)
03:22PM 51.4047 -0.9678 86° East 354 407 18,000  Level FlightAware ADS-B
03:22PM 51.4058 -0.9446 86° East 353 406 18,000  Level FlightAware ADS-B (EGHH / BOH)
03:22PM 51.4066 -0.9302 85° East 352 405 18,000  Level FlightAware ADS-B (LSXS)
03:22PM 51.4070 -0.9219 85° East 351 404 18,000  Level FlightAware ADS-B (EGLC / LCY)
03:22PM 51.4086 -0.8900 85° East 351 404 18,000  Level FlightAware ADS-B
03:22PM 51.4091 -0.8811 85° East 351 404 18,000  Level FlightAware ADS-B (LSXS)
03:23PM 51.4097 -0.8690 85° East 351 404 18,000  Level FlightAware ADS-B (EGHI / SOU)
03:23PM 51.4105 -0.8525 85° East 352 405 18,000  Level FlightAware ADS-B (LSXS)
03:23PM 51.4111 -0.8404 85° East 352 405 18,000  Level FlightAware ADS-B (EHTW / ENS)
03:23PM 51.4117 -0.8286 85° East 352 405 18,000  Level FlightAware ADS-B (LSXS)
03:23PM 51.4126 -0.8118 85° East 353 406 18,000  Level FlightAware ADS-B
03:23PM 51.4126 -0.8118 180° South 353 406 18,000  Level FlightAware ADS-B (EGWE)
03:23PM 51.4132 -0.7988 85° East 353 406 18,000  Level FlightAware ADS-B
03:23PM 51.4139 -0.7856 86° East 352 405 18,000  Level FlightAware ADS-B (EGHH / BOH)
03:23PM 51.4150 -0.7635 85° East 352 405 18,000  Level FlightAware ADS-B
03:23PM 51.4154 -0.7555 86° East 352 405 18,000  Level FlightAware ADS-B (EGWE)
03:23PM 51.4164 -0.7333 86° East 351 404 18,000  Level FlightAware ADS-B
03:24PM 51.4175 -0.7103 86° East 350 403 18,000  Level FlightAware ADS-B (EGHH / BOH)
03:24PM 51.4180 -0.6998 85° East 350 403 18,000  Level FlightAware ADS-B (LSXS)
03:24PM 51.4193 -0.6731 86° East 350 403 18,000  Level FlightAware ADS-B (LSXS)
03:24PM 51.4201 -0.6558 86° East 350 403 18,000  Level FlightAware ADS-B
03:24PM 51.4202 -0.6544 86° East 350 403 18,000  Level FlightAware ADS-B
03:24PM 51.4208 -0.6412 86° East 350 403 18,000  Level FlightAware ADS-B (EHTW / ENS)
03:24PM 51.4216 -0.6248 85° East 349 402 18,000  Level FlightAware ADS-B (EGHH / BOH)
03:24PM 51.4233 -0.5913 85° East 351 404 18,000  Level FlightAware ADS-B
03:24PM 51.4241 -0.5729 86° East 351 404 18,000  Level FlightAware ADS-B (LSXS)
03:25PM 51.4261 -0.5293 86° East 351 404 18,000  Level FlightAware ADS-B
03:25PM 51.4265 -0.5204 86° East 351 404 18,000  Level FlightAware ADS-B (EGHH / BOH)
03:25PM 51.4270 -0.5108 86° East 352 405 18,000  Level FlightAware ADS-B
03:25PM 51.4277 -0.4953 86° East 352 405 18,000  Level FlightAware ADS-B (EGHH / BOH)
03:25PM 51.4291 -0.4668 86° East 352 405 18,000  Level FlightAware ADS-B (EGLF / FAB)
03:25PM 51.4303 -0.4415 85° East 352 405 18,000  Level FlightAware ADS-B
03:25PM 51.4307 -0.4331 86° East 352 405 18,000 -720 Level FlightAware ADS-B
03:25PM 51.4316 -0.4153 85° East 352 405 17,900 -600 Descending FlightAware ADS-B (EGHH / BOH)
03:25PM 51.4321 -0.4079 84° East 351 404 17,900  Level FlightAware ADS-B
03:26PM 51.4323 -0.4052 83° East 350 403 17,900 -1,020 Level FlightAware ADS-B (EGHI / SOU)
03:26PM 51.4339 -0.3928 78° East 345 397 17,800 -900 Descending FlightAware ADS-B
03:26PM 51.4335 -0.3956 256° West 344 396 17,800 -1,200 Level FlightAware ADS-B (EGLF / FAB)
03:26PM 51.4361 -0.3821 73° East 342 394 17,700 -1,020 Descending FlightAware ADS-B
03:26PM 51.4381 -0.3751 66° East 339 390 17,700  Level FlightAware ADS-B
03:26PM 51.4406 -0.3677 61° Northeast 336 387 17,700 -1,200 Level FlightAware ADS-B (EGHH / BOH)
03:26PM 51.4418 -0.3645 60° Northeast 335 386 17,600 -780 Descending FlightAware ADS-B
03:26PM 51.4472 -0.3523 55° Northeast 331 381 17,600 -600 Level FlightAware ADS-B
03:26PM 51.4527 -0.3426 48° Northeast 328 377 17,500 -780 Descending FlightAware ADS-B
03:26PM 51.4557 -0.3380 44° Northeast 326 375 17,500 -1,380 Level FlightAware ADS-B
03:26PM 51.4636 -0.3281 38° Northeast 323 372 17,300 -1,500 Descending FlightAware ADS-B
03:26PM 51.4711 -0.3210 31° Northeast 321 369 17,200 -1,200 Descending FlightAware ADS-B
03:26PM 51.4703 -0.3215 204° Southwest 321 369 17,100 -1,320 Descending FlightAware ADS-B (EGWE)
03:27PM 51.4954 -0.3010 27° Northeast 311 358 16,800 -1,800 Descending FlightAware ADS-B (LSXS)
03:27PM 51.5112 -0.2883 27° Northeast 318 366 16,300 -2,520 Descending FlightAware ADS-B
03:27PM 51.5184 -0.2828 25° Northeast 310 357 16,100 -2,100 Descending FlightAware ADS-B (EGHH / BOH)
03:27PM 51.5461 -0.2627 24° Northeast 311 358 15,400 -2,100 Descending FlightAware ADS-B
03:27PM 51.5519 -0.2580 27° Northeast 309 356 15,200 -3,000 Descending FlightAware ADS-B
03:27PM 51.5556 -0.2546 30° Northeast 308 354 15,000 -3,480 Descending FlightAware ADS-B
03:27PM 51.5604 -0.2495 33° Northeast 306 352 14,800 -2,280 Descending FlightAware ADS-B
03:28PM 51.5679 -0.2409 35° Northeast 305 351 14,400 -3,600 Descending FlightAware ADS-B
03:28PM 51.5947 -0.2104 35° Northeast 301 346 13,000 -4,440 Descending FlightAware ADS-B
03:28PM 51.5760 -0.2316 215° Southwest 300 345 13,000 -2,040 Level FlightAware ADS-B
03:28PM 51.6149 -0.1876 35° Northeast 288 331 12,400 -1,800 Descending FlightAware ADS-B
03:28PM 51.6213 -0.1812 32° Northeast 284 327 12,300 -720 Descending FlightAware ADS-B (EGWE)
03:28PM 51.6337 -0.1698 30° Northeast 260 299 12,200 -780 Descending FlightAware ADS-B (EHTW / ENS)
03:29PM 51.6401 -0.1644 28° Northeast 259 298 12,100 -1,080 Descending FlightAware ADS-B
03:29PM 51.6510 -0.1561 25° Northeast 248 285 11,900 -1,380 Descending FlightAware ADS-B
03:29PM 51.6625 -0.1485 22° Northeast 241 277 11,600 -1,680 Descending FlightAware ADS-B
03:29PM 51.6694 -0.1442 21° North 238 274 11,400 -2,400 Descending FlightAware ADS-B (EGLC / LCY)
03:29PM 51.6879 -0.1323 22° Northeast 238 274 10,600 -2,760 Descending FlightAware ADS-B
03:30PM 51.7016 -0.1234 22° Northeast 242 278 10,000 -2,820 Descending FlightAware ADS-B (EGLC / LCY)
03:30PM 51.7040 -0.1219 21° North 243 280 9,900 -3,000 Descending FlightAware ADS-B
03:30PM 51.7191 -0.1123 21° North 253 291 9,200 -3,000 Descending FlightAware ADS-B (EGWE)
03:30PM 51.7209 -0.1112 22° Northeast 254 292 9,100 -2,160 Descending FlightAware ADS-B
03:30PM 51.7346 -0.1026 21° North 255 293 8,700 -2,280 Descending FlightAware ADS-B
03:30PM 51.7390 -0.0997 22° Northeast 252 290 8,500 -1,500 Descending FlightAware ADS-B (EGWE)
03:30PM 51.7516 -0.0917 22° Northeast 248 285 8,300 -840 Descending FlightAware ADS-B
03:31PM 51.7591 -0.0868 22° Northeast 245 282 8,200 -780 Descending FlightAware ADS-B (EGWE)
03:31PM 51.7678 -0.0811 22° Northeast 242 278 8,100 -600 Descending FlightAware ADS-B
03:31PM 51.7830 -0.0712 22° Northeast 235 270 8,000 -420 Descending FlightAware ADS-B
03:31PM 51.7987 -0.0610 22° Northeast 230 265 7,900 -840 Descending FlightAware ADS-B
03:31PM 51.8109 -0.0530 22° Northeast 225 259 7,600 -1,620 Descending FlightAware ADS-B
03:31PM 51.8134 -0.0514 22° Northeast 225 259 7,500 -2,160 Descending FlightAware ADS-B
03:32PM 51.8266 -0.0429 22° Northeast 228 262 7,100 -2,040 Descending FlightAware ADS-B
03:32PM 51.8331 -0.0386 22° Northeast 227 261 6,800 -2,220 Descending FlightAware ADS-B
03:32PM 51.8372 -0.0354 26° Northeast 226 260 6,700 -1,020 Descending FlightAware ADS-B
03:32PM 51.8399 -0.0325 34° Northeast 226 260 6,700 -900 Level FlightAware ADS-B
03:32PM 51.8399 -0.0325 360° North 227 261 6,600 -1,500 Descending FlightAware ADS-B
03:32PM 51.8542 -0.0095 45° Northeast 224 258 6,200 -1,380 Descending FlightAware ADS-B
03:32PM 51.8652 0.0088 46° Northeast 223 257 5,900 -780 Descending FlightAware ADS-B
03:33PM 51.8697 0.0164 46° Northeast 219 252 5,900  Level FlightAware ADS-B
03:33PM 51.8767 0.0280 46° Northeast 218 251 5,900  Level FlightAware ADS-B
03:33PM 51.8804 0.0340 45° Northeast 219 252 5,900  Level FlightAware ADS-B (EGLC / LCY)
03:33PM 51.8882 0.0471 46° Northeast 219 252 5,900  Level FlightAware ADS-B
03:33PM 51.8971 0.0618 45° Northeast 223 257 5,900  Level FlightAware ADS-B (EHTW / ENS)
03:33PM 51.9000 0.0665 45° Northeast 219 252 5,900  Level FlightAware ADS-B
03:33PM 51.9106 0.0842 46° Northeast 219 252 5,900  Level FlightAware ADS-B
03:34PM 51.9121 0.0866 45° Northeast 219 252 5,900  Level FlightAware ADS-B (EGWE)
03:34PM 51.9213 0.1019 46° Northeast 220 253 5,900  Level FlightAware ADS-B
03:34PM 51.9264 0.1103 45° Northeast 219 252 5,900  Level FlightAware ADS-B (EGWE)
03:34PM 51.9325 0.1205 46° Northeast 219 252 5,900 -660 Level FlightAware ADS-B
03:34PM 51.9329 0.1211 45° Northeast 220 253 5,700 -900 Descending FlightAware ADS-B (EGLC / LCY)
03:34PM 51.9465 0.1439 46° Northeast 220 253 5,600 -600 Descending FlightAware ADS-B
03:35PM 51.9556 0.1592 46° Northeast 220 253 5,500 -600 Descending FlightAware ADS-B (EGLC / LCY)
03:35PM 51.9637 0.1729 46° Northeast 220 253 5,300 -720 Descending FlightAware ADS-B (EGLC / LCY)
03:35PM 51.9797 0.2000 46° Northeast 220 253 5,000 -600 Descending FlightAware ADS-B
03:35PM 51.9921 0.2207 46° Northeast 220 253 5,000 -360 Level FlightAware ADS-B
03:36PM 51.9829 0.2054 226° Southwest 219 252 4,900 -780 Descending FlightAware ADS-B (EGLC / LCY)
03:36PM 52.0008 0.2353 46° Northeast 220 253 4,600 -720 Descending FlightAware ADS-B
03:36PM 52.0298 0.2840 46° Northeast 218 251 4,400 -600 Descending FlightAware ADS-B
03:36PM 52.0358 0.2972 54° Northeast 222 255 4,300 -600 Descending FlightAware ADS-B
03:37PM 52.0383 0.3117 75° East 224 258 4,200 -540 Descending FlightAware ADS-B
03:37PM 52.0366 0.3355 97° East 222 255 4,100 -600 Descending FlightAware ADS-B
03:37PM 52.0307 0.3614 110° East 218 251 3,900 -540 Descending FlightAware ADS-B
03:37PM 52.0265 0.3691 132° Southeast 216 249 3,900  Level FlightAware ADS-B (EGLC / LCY)
03:37PM 52.0211 0.3749 146° Southeast 211 243 3,900 300 Level FlightAware ADS-B
03:38PM 52.0120 0.3786 166° South 200 230 4,000  Climbing FlightAware ADS-B
03:38PM 52.0022 0.3754 192° South 198 228 3,900 -480 Descending FlightAware ADS-B (EGLC / LCY)
03:38PM 52.0013 0.3746 209° Southwest 193 222 3,900  Level FlightAware ADS-B
03:38PM 51.9936 0.3629 223° Southwest 189 217 3,900  Level FlightAware ADS-B
03:38PM 51.9907 0.3471 253° West 184 212 3,900  Level FlightAware ADS-B (EGLC / LCY)
03:39PM 51.9865 0.2882 263° West 187 215 3,900  Level FlightAware ADS-B (EGLC / LCY)
03:40PM 51.9643 0.2345 263° West 184 212 3,900  Level FlightAware UK
03:40PM 51.9583 0.2255 263° West 197 227 3,900  Level FlightAware ADS-B (EGLC / LCY)
03:40PM 51.9450 0.2053 223° Southwest 190 219 3,900 -540 Level FlightAware ADS-B (EGLC / LCY)
03:41PM 51.9215 0.1693 223° Southwest 193 222 3,400 -900 Descending FlightAware ADS-B (EGLC / LCY)
03:41PM 51.9081 0.1488 223° Southwest 194 223 3,100 -780 Descending FlightAware ADS-B (EGLC / LCY)
03:41PM 51.8963 0.1308 223° Southwest 192 221 2,900 -360 Descending FlightAware ADS-B (EGLC / LCY)
03:42PM 51.8866 0.1157 224° Southwest 197 227 2,900  Level FlightAware ADS-B (EGLC / LCY)
03:42PM 51.8687 0.0881 224° Southwest 194 223 2,900  Level FlightAware ADS-B (EGLC / LCY)
03:43PM 51.8528 0.0638 223° Southwest 193 222 2,900  Level FlightAware ADS-B
03:43PM 51.8284 0.0263 224° Southwest 195 224 2,900  Level FlightAware ADS-B
03:43PM 51.8216 0.0195 211° Southwest 197 227 2,900  Level FlightAware ADS-B
03:44PM 51.8034 0.0153 188° South 200 230 2,900  Level FlightAware ADS-B (EGLC / LCY)
03:44PM 51.7943 0.0159 177° South 200 230 2,900 -360 Level FlightAware ADS-B (EGLC / LCY)
03:44PM 51.7929 0.0165 166° South 198 228 2,800 -900 Descending FlightAware ADS-B
03:44PM 51.7849 0.0236 151° Southeast 194 223 2,600 -900 Descending FlightAware ADS-B
03:44PM 51.7849 0.0236 151° Southeast 194 223 2,500 -720 Descending FlightAware ADS-B
03:44PM 51.7691 0.0476 137° Southeast 189 217 2,400 -1,140 Descending FlightAware ADS-B (EGLC / LCY)
03:44PM 51.7666 0.0585 110° East 178 205 2,200 -1,440 Descending FlightAware ADS-B (EGLC / LCY)
03:45PM 51.7693 0.0737 74° East 162 186 1,900 -900 Descending FlightAware ADS-B
03:45PM 51.7747 0.0793 33° Northeast 157 181 1,900 240 Level FlightAware ADS-B (EGLC / LCY)
03:45PM 51.7837 0.0868 27° Northeast 161 185 2,000  Climbing FlightAware ADS-B
03:46PM 51.7947 0.1005 38° Northeast 151 174 1,900 -180 Descending FlightAware ADS-B
03:46PM 51.8023 0.1120 43° Northeast 149 171 1,900  Level FlightAware ADS-B (EGLC / LCY)
03:46PM 51.8161 0.1320 42° Northeast 148 170 1,900 -360 Level FlightAware ADS-B
03:46PM 51.8264 0.1473 43° Northeast 147 169 1,700 -780 Descending FlightAware ADS-B
03:47PM 51.8422 0.1710 43° Northeast 142 163 1,200 -840 Descending FlightAware UK
03:47PM 51.8502 0.1827 42° Northeast 142 163 1,000 -720 Descending FlightAware UK
03:48PM 51.8578 0.1941 42° Northeast 142 163 800 -720 Descending FlightAware UK
03:48PM 51.8684 0.2099 43° Northeast 138 159 500 -720 Descending FlightAware UK
03:48PM 51.8766 0.2222 43° Northeast 142 163 300 -720 Descending FlightAware UK